Garden Valley, ID (83622)

7:06 PM MDT on August 26, 2016 (GMT -0600)
Duquette Pines | | Change Station

Elev 4295 ft 43.83 °N, 115.82 °W | Updated 8 seconds ago

Clear
Clear
76.1 °F
Feels Like 76 °F
N
0.0
Wind Variable Wind from SW
Gusts 0.0 mph

Today
High -- | Low -- °F
--% Chance of Precip.
Yesterday
High -- | Low -- °F
Precip. -- in
Pressure 29.83 in
Visibility 10.0 miles
Clouds Clear
Heat Index 76 °F
Dew Point 29 °F
Humidity 18%
Rainfall 0.00 in
Snow Depth Not available.
6:59 AM 8:27 PM
Waning Crescent, 29% visible
METAR KBOI 270053Z 31008KT 10SM CLR 29/M01 A2991 RMK AO2 SLP102 T02891011
Pressure 29.83 in
Visibility 10.0 miles
Clouds Clear
Heat Index 76 °F
Dew Point 29 °F
Humidity 18%
Rainfall 0.00 in
Snow Depth Not available.
6:59 AM 8:27 PM
Waning Crescent, 29% visible
METAR KBOI 270053Z 31008KT 10SM CLR 29/M01 A2991 RMK AO2 SLP102 T02891011

10-Day Weather Forecast

Almanac

Astronomy

Aug. 26, 2016 Rise Set
Actual Time
Civil Twilight
Nautical Twilight
Astronomical Twilight
Moon
Length of Visible Light
Length of Day
Tomorrow will be .
, % of the Moon is Illuminated

Today's Extremes

State Highs State Lows

Community

WunderPhotos

Upload Photos

1,935,261 photos uploaded!

WunderBlog® & News

Nearby

Air Quality

  Air Quality AQ Index Pollutant
Not available.

Snow Depth

Station Depth Elevation

Earthquake Activity

City Distance Mag. Time & Date
Minimum magnitude displayed is 2.5.

Coastal Water Temperatures

Place Temperature

Stations

Nearby Weather Stations

Station Location Temp. Windchill Dew Point Humidity Wind Precip. Elev Updated Type
                   

Watches & Warnings

There are currently no watches in effect.